sensor_id;sensor_type;location;lat;lon;timestamp;pressure;altitude;pressure_sealevel;temperature;humidity
48614;BME280;34408;51.426;5.444;2022-09-17T00:01:08;101285.81;;;14.74;60.31
48614;BME280;34408;51.426;5.444;2022-09-17T00:03:38;101298.50;;;14.73;60.63
48614;BME280;34408;51.426;5.444;2022-09-17T00:06:07;101294.16;;;14.72;60.57
48614;BME280;34408;51.426;5.444;2022-09-17T00:08:37;101296.88;;;14.72;60.48
48614;BME280;34408;51.426;5.444;2022-09-17T00:11:08;101312.28;;;14.72;60.41
48614;BME280;34408;51.426;5.444;2022-09-17T00:13:36;101299.22;;;14.69;60.68
48614;BME280;34408;51.426;5.444;2022-09-17T00:16:04;101302.75;;;14.69;60.41
48614;BME280;34408;51.426;5.444;2022-09-17T00:18:32;101311.13;;;14.68;60.63
48614;BME280;34408;51.426;5.444;2022-09-17T00:21:02;101316.41;;;14.62;60.78
48614;BME280;34408;51.426;5.444;2022-09-17T00:23:30;101319.22;;;14.68;60.99
48614;BME280;34408;51.426;5.444;2022-09-17T00:25:58;101323.22;;;14.65;60.71
48614;BME280;34408;51.426;5.444;2022-09-17T00:28:27;101324.88;;;14.66;60.82
48614;BME280;34408;51.426;5.444;2022-09-17T00:30:54;101322.41;;;14.64;60.90
48614;BME280;34408;51.426;5.444;2022-09-17T00:33:22;101331.34;;;14.65;60.75
48614;BME280;34408;51.426;5.444;2022-09-17T00:35:57;101325.94;;;14.65;60.86
48614;BME280;34408;51.426;5.444;2022-09-17T00:38:25;101320.53;;;14.65;60.78
48614;BME280;34408;51.426;5.444;2022-09-17T00:40:53;101320.53;;;14.65;60.53
48614;BME280;34408;51.426;5.444;2022-09-17T00:43:40;101316.16;;;14.64;60.59
48614;BME280;34408;51.426;5.444;2022-09-17T00:46:20;101322.41;;;14.64;60.60
48614;BME280;34408;51.426;5.444;2022-09-17T00:48:51;101320.75;;;14.63;60.47
48614;BME280;34408;51.426;5.444;2022-09-17T00:51:23;101322.88;;;14.61;60.78
48614;BME280;34408;51.426;5.444;2022-09-17T00:53:54;101327.94;;;14.58;60.87
48614;BME280;34408;51.426;5.444;2022-09-17T00:56:24;101325.25;;;14.58;60.89
48614;BME280;34408;51.426;5.444;2022-09-17T00:58:54;101326.06;;;14.58;60.88
48614;BME280;34408;51.426;5.444;2022-09-17T01:01:22;101328.75;;;14.58;61.09
48614;BME280;34408;51.426;5.444;2022-09-17T01:03:50;101320.66;;;14.58;60.70
48614;BME280;34408;51.426;5.444;2022-09-17T01:06:24;101319.00;;;14.57;60.87
48614;BME280;34408;51.426;5.444;2022-09-17T01:08:58;101330.41;;;14.59;60.92
48614;BME280;34408;51.426;5.444;2022-09-17T01:11:43;101324.41;;;14.57;60.68
48614;BME280;34408;51.426;5.444;2022-09-17T01:14:35;101330.66;;;14.58;60.63
48614;BME280;34408;51.426;5.444;2022-09-17T01:17:14;101330.66;;;14.58;60.98
48614;BME280;34408;51.426;5.444;2022-09-17T01:23:17;101341.94;;;14.55;60.95
48614;BME280;34408;51.426;5.444;2022-09-17T01:26:04;101338.41;;;14.54;61.00
48614;BME280;34408;51.426;5.444;2022-09-17T01:28:43;101334.88;;;14.54;60.85
48614;BME280;34408;51.426;5.444;2022-09-17T01:31:29;101336.75;;;14.53;60.86
48614;BME280;34408;51.426;5.444;2022-09-17T01:34:09;101338.88;;;14.51;60.70
48614;BME280;34408;51.426;5.444;2022-09-17T01:36:48;101339.72;;;14.52;60.70
48614;BME280;34408;51.426;5.444;2022-09-17T01:39:29;101344.75;;;14.48;61.08
48614;BME280;34408;51.426;5.444;2022-09-17T01:42:06;101351.47;;;14.46;61.16
48614;BME280;34408;51.426;5.444;2022-09-17T01:44:44;101356.06;;;14.45;61.21
48614;BME280;34408;51.426;5.444;2022-09-17T01:47:17;101349.81;;;14.45;61.50
48614;BME280;34408;51.426;5.444;2022-09-17T01:49:47;101360.88;;;14.43;61.20
48614;BME280;34408;51.426;5.444;2022-09-17T01:52:18;101358.75;;;14.45;61.36
48614;BME280;34408;51.426;5.444;2022-09-17T01:54:50;101352.53;;;14.45;61.20
48614;BME280;34408;51.426;5.444;2022-09-17T01:57:24;101353.59;;;14.44;61.65
48614;BME280;34408;51.426;5.444;2022-09-17T01:59:57;101350.88;;;14.44;61.63
48614;BME280;34408;51.426;5.444;2022-09-17T02:02:30;101359.00;;;14.44;61.21
48614;BME280;34408;51.426;5.444;2022-09-17T02:05:02;101352.75;;;14.43;61.24
48614;BME280;34408;51.426;5.444;2022-09-17T02:07:38;101360.03;;;14.43;61.19
48614;BME280;34408;51.426;5.444;2022-09-17T02:10:10;101349.44;;;14.41;61.56
48614;BME280;34408;51.426;5.444;2022-09-17T02:12:42;101357.53;;;14.41;61.60
48614;BME280;34408;51.426;5.444;2022-09-17T02:15:16;101359.44;;;14.41;61.49
48614;BME280;34408;51.426;5.444;2022-09-17T02:17:51;101355.69;;;14.42;61.34
48614;BME280;34408;51.426;5.444;2022-09-17T02:20:25;101348.59;;;14.41;61.56
48614;BME280;34408;51.426;5.444;2022-09-17T02:22:58;101356.72;;;14.41;61.68
48614;BME280;34408;51.426;5.444;2022-09-17T02:25:33;101352.13;;;14.41;61.60
48614;BME280;34408;51.426;5.444;2022-09-17T02:28:07;101351.31;;;14.41;61.63
48614;BME280;34408;51.426;5.444;2022-09-17T02:30:39;101355.69;;;14.42;61.49
48614;BME280;34408;51.426;5.444;2022-09-17T02:33:11;101355.69;;;14.42;61.70
48614;BME280;34408;51.426;5.444;2022-09-17T02:35:40;101353.00;;;14.42;61.30
48614;BME280;34408;51.426;5.444;2022-09-17T02:38:09;101347.66;;;14.35;61.21
48614;BME280;34408;51.426;5.444;2022-09-17T02:40:44;101368.59;;;14.40;61.61
48614;BME280;34408;51.426;5.444;2022-09-17T02:43:15;101361.31;;;14.40;61.63
48614;BME280;34408;51.426;5.444;2022-09-17T02:46:00;101368.38;;;14.41;61.48
48614;BME280;34408;51.426;5.444;2022-09-17T02:48:59;101369.66;;;14.39;61.35
48614;BME280;34408;51.426;5.444;2022-09-17T02:51:35;101371.53;;;14.38;61.62
48614;BME280;34408;51.426;5.444;2022-09-17T02:54:17;101372.34;;;14.39;61.32
48614;BME280;34408;51.426;5.444;2022-09-17T02:56:56;101370.72;;;14.38;61.56
48614;BME280;34408;51.426;5.444;2022-09-17T02:59:31;101365.78;;;14.34;61.66
48614;BME280;34408;51.426;5.444;2022-09-17T03:02:04;101368.84;;;14.38;61.35
48614;BME280;34408;51.426;5.444;2022-09-17T03:04:39;101378.81;;;14.38;61.48
48614;BME280;34408;51.426;5.444;2022-09-17T03:07:08;101374.72;;;14.35;61.58
48614;BME280;34408;51.426;5.444;2022-09-17T03:09:37;101369.78;;;14.32;61.63
48614;BME280;34408;51.426;5.444;2022-09-17T03:12:06;101370.59;;;14.32;61.69
48614;BME280;34408;51.426;5.444;2022-09-17T03:14:34;101376.00;;;14.32;61.74
48614;BME280;34408;51.426;5.444;2022-09-17T03:17:02;101369.78;;;14.32;61.65
48614;BME280;34408;51.426;5.444;2022-09-17T03:19:30;101379.53;;;14.33;61.54
48614;BME280;34408;51.426;5.444;2022-09-17T03:21:59;101374.13;;;14.33;61.65
48614;BME280;34408;51.426;5.444;2022-09-17T03:24:27;101376.81;;;14.33;61.40
48614;BME280;34408;51.426;5.444;2022-09-17T03:26:54;101373.28;;;14.32;61.28
48614;BME280;34408;51.426;5.444;2022-09-17T03:29:22;101365.19;;;14.32;61.58
48614;BME280;34408;51.426;5.444;2022-09-17T03:31:50;101367.53;;;14.29;61.51
48614;BME280;34408;51.426;5.444;2022-09-17T03:34:17;101372.69;;;14.30;61.23
48614;BME280;34408;51.426;5.444;2022-09-17T03:36:46;101366.47;;;14.30;61.43
48614;BME280;34408;51.426;5.444;2022-09-17T03:39:15;101359.19;;;14.30;61.11
48614;BME280;34408;51.426;5.444;2022-09-17T03:41:42;101368.34;;;14.29;61.49
48614;BME280;34408;51.426;5.444;2022-09-17T03:44:10;101362.13;;;14.29;61.31
48614;BME280;34408;51.426;5.444;2022-09-17T03:46:38;101371.06;;;14.29;61.21
48614;BME280;34408;51.426;5.444;2022-09-17T03:49:06;101362.34;;;14.27;61.26
48614;BME280;34408;51.426;5.444;2022-09-17T03:51:34;101367.16;;;14.25;61.50
48614;BME280;34408;51.426;5.444;2022-09-17T03:54:02;101369.06;;;14.25;61.36
48614;BME280;34408;51.426;5.444;2022-09-17T03:56:31;101376.94;;;14.26;61.21
48614;BME280;34408;51.426;5.444;2022-09-17T03:59:00;101378.00;;;14.25;61.17
48614;BME280;34408;51.426;5.444;2022-09-17T04:01:28;101374.47;;;14.25;61.45
48614;BME280;34408;51.426;5.444;2022-09-17T04:03:56;101380.69;;;14.25;61.24
48614;BME280;34408;51.426;5.444;2022-09-17T04:06:24;101371.75;;;14.25;60.94
48614;BME280;34408;51.426;5.444;2022-09-17T04:08:51;101371.75;;;14.25;60.80
48614;BME280;34408;51.426;5.444;2022-09-17T04:11:19;101376.56;;;14.23;60.76
48614;BME280;34408;51.426;5.444;2022-09-17T04:13:48;101380.94;;;14.24;61.05
48614;BME280;34408;51.426;5.444;2022-09-17T04:16:16;101386.34;;;14.24;61.17
48614;BME280;34408;51.426;5.444;2022-09-17T04:18:44;101388.22;;;14.23;60.98
48614;BME280;34408;51.426;5.444;2022-09-17T04:21:11;101387.84;;;14.20;60.94
48614;BME280;34408;51.426;5.444;2022-09-17T04:23:39;101387.38;;;14.23;60.94
48614;BME280;34408;51.426;5.444;2022-09-17T04:26:07;101384.31;;;14.19;60.81
48614;BME280;34408;51.426;5.444;2022-09-17T04:28:34;101386.22;;;14.19;61.04
48614;BME280;34408;51.426;5.444;2022-09-17T04:31:03;101389.72;;;14.19;60.62
48614;BME280;34408;51.426;5.444;2022-09-17T04:33:31;101390.78;;;14.18;61.01
48614;BME280;34408;51.426;5.444;2022-09-17T04:35:59;101387.25;;;14.18;60.88
48614;BME280;34408;51.426;5.444;2022-09-17T04:38:26;101385.38;;;14.18;60.89
48614;BME280;34408;51.426;5.444;2022-09-17T04:40:54;101385.38;;;14.18;60.78
48614;BME280;34408;51.426;5.444;2022-09-17T04:43:22;101392.66;;;14.18;60.93
48614;BME280;34408;51.426;5.444;2022-09-17T04:45:50;101385.63;;;14.17;60.90
48614;BME280;34408;51.426;5.444;2022-09-17T04:48:19;101390.44;;;14.15;60.71
48614;BME280;34408;51.426;5.444;2022-09-17T04:50:47;101395.25;;;14.13;60.77
48614;BME280;34408;51.426;5.444;2022-09-17T04:53:14;101393.94;;;14.15;60.69
48614;BME280;34408;51.426;5.444;2022-09-17T04:55:42;101412.06;;;14.15;60.46
48614;BME280;34408;51.426;5.444;2022-09-17T04:58:10;101420.03;;;14.10;60.69
48614;BME280;34408;51.426;5.444;2022-09-17T05:00:38;101407.56;;;14.09;61.32
48614;BME280;34408;51.426;5.444;2022-09-17T05:03:07;101406.75;;;14.08;60.75
48614;BME280;34408;51.426;5.444;2022-09-17T05:05:36;101399.69;;;14.07;61.30
48614;BME280;34408;51.426;5.444;2022-09-17T05:08:04;101400.97;;;14.05;61.24
48614;BME280;34408;51.426;5.444;2022-09-17T05:10:33;101398.28;;;14.05;60.92
48614;BME280;34408;51.426;5.444;2022-09-17T05:13:02;101399.56;;;14.02;61.33
48614;BME280;34408;51.426;5.444;2022-09-17T05:15:30;101400.84;;;13.99;61.05
48614;BME280;34408;51.426;5.444;2022-09-17T05:17:57;101410.84;;;13.99;61.21
48614;BME280;34408;51.426;5.444;2022-09-17T05:20:25;101410.84;;;13.99;61.67
48614;BME280;34408;51.426;5.444;2022-09-17T05:22:54;101409.56;;;14.01;61.59
48614;BME280;34408;51.426;5.444;2022-09-17T05:25:22;101417.44;;;14.03;61.03
48614;BME280;34408;51.426;5.444;2022-09-17T05:27:50;101417.19;;;14.05;61.54
48614;BME280;34408;51.426;5.444;2022-09-17T05:30:18;101423.44;;;14.05;61.43
48614;BME280;34408;51.426;5.444;2022-09-17T05:32:47;101419.91;;;14.05;61.21
48614;BME280;34408;51.426;5.444;2022-09-17T05:35:15;101425.75;;;14.01;61.27
48614;BME280;34408;51.426;5.444;2022-09-17T05:37:43;101418.47;;;14.02;61.49
48614;BME280;34408;51.426;5.444;2022-09-17T05:40:12;101432.59;;;14.04;61.47
48614;BME280;34408;51.426;5.444;2022-09-17T05:42:39;101434.47;;;14.04;61.25
48614;BME280;34408;51.426;5.444;2022-09-17T05:45:07;101432.81;;;14.02;61.26
48614;BME280;34408;51.426;5.444;2022-09-17T05:47:35;101432.81;;;14.02;61.40
48614;BME280;34408;51.426;5.444;2022-09-17T05:50:03;101415.28;;;13.93;61.44
48614;BME280;34408;51.426;5.444;2022-09-17T05:52:31;101426.00;;;14.00;61.38
48614;BME280;34408;51.426;5.444;2022-09-17T05:54:59;101432.22;;;14.00;61.39
48614;BME280;34408;51.426;5.444;2022-09-17T05:57:28;101436.56;;;14.01;61.39
48614;BME280;34408;51.426;5.444;2022-09-17T05:59:56;101432.22;;;14.00;61.47
48614;BME280;34408;51.426;5.444;2022-09-17T06:02:24;101438.47;;;14.01;61.35
48614;BME280;34408;51.426;5.444;2022-09-17T06:04:52;101440.34;;;14.00;61.47
48614;BME280;34408;51.426;5.444;2022-09-17T06:07:19;101445.97;;;13.99;61.68
48614;BME280;34408;51.426;5.444;2022-09-17T06:09:47;101452.19;;;13.99;61.64
48614;BME280;34408;51.426;5.444;2022-09-17T06:12:14;101462.19;;;13.99;61.74
48614;BME280;34408;51.426;5.444;2022-09-17T06:14:44;101471.34;;;13.98;62.08
48614;BME280;34408;51.426;5.444;2022-09-17T06:17:11;101463.09;;;13.81;63.10
48614;BME280;34408;51.426;5.444;2022-09-17T06:19:39;101463.63;;;13.72;63.15
48614;BME280;34408;51.426;5.444;2022-09-17T06:22:07;101468.94;;;13.78;63.08
48614;BME280;34408;51.426;5.444;2022-09-17T06:24:34;101479.97;;;13.77;62.56
48614;BME280;34408;51.426;5.444;2022-09-17T06:27:02;101480.19;;;13.75;62.70
48614;BME280;34408;51.426;5.444;2022-09-17T06:29:30;101479.16;;;13.76;62.08
48614;BME280;34408;51.426;5.444;2022-09-17T06:31:59;101473.75;;;13.76;62.01
48614;BME280;34408;51.426;5.444;2022-09-17T06:34:28;101456.13;;;13.74;62.21
48614;BME280;34408;51.426;5.444;2022-09-17T06:36:55;101474.03;;;13.86;61.87
48614;BME280;34408;51.426;5.444;2022-09-17T06:39:23;101459.91;;;13.84;61.76
48614;BME280;34408;51.426;5.444;2022-09-17T06:41:51;101463.75;;;13.77;62.64
48614;BME280;34408;51.426;5.444;2022-09-17T06:44:18;101460.78;;;13.66;63.24
48614;BME280;34408;51.426;5.444;2022-09-17T06:46:48;101470.38;;;13.62;63.39
48614;BME280;34408;51.426;5.444;2022-09-17T06:49:17;101457.25;;;13.66;62.91
48614;BME280;34408;51.426;5.444;2022-09-17T06:51:45;101464.22;;;13.74;62.82
48614;BME280;34408;51.426;5.444;2022-09-17T06:54:13;101455.66;;;13.77;62.41
48614;BME280;34408;51.426;5.444;2022-09-17T06:56:40;101465.41;;;13.78;62.29
48614;BME280;34408;51.426;5.444;2022-09-17T06:59:08;101458.34;;;13.77;62.50
48614;BME280;34408;51.426;5.444;2022-09-17T07:01:36;101462.34;;;13.74;62.18
48614;BME280;34408;51.426;5.444;2022-09-17T07:04:03;101452.00;;;13.71;62.50
48614;BME280;34408;51.426;5.444;2022-09-17T07:06:33;101457.75;;;13.75;62.24
48614;BME280;34408;51.426;5.444;2022-09-17T07:09:01;101458.13;;;13.78;62.16
48614;BME280;34408;51.426;5.444;2022-09-17T07:11:33;101454.75;;;13.83;62.25
48614;BME280;34408;51.426;5.444;2022-09-17T07:14:00;101457.81;;;13.86;62.21
48614;BME280;34408;51.426;5.444;2022-09-17T07:16:29;101463.78;;;13.88;62.23
48614;BME280;34408;51.426;5.444;2022-09-17T07:18:58;101465.22;;;13.91;61.69
48614;BME280;34408;51.426;5.444;2022-09-17T07:21:26;101473.31;;;13.91;61.74
48614;BME280;34408;51.426;5.444;2022-09-17T07:23:55;101467.31;;;13.89;61.81
48614;BME280;34408;51.426;5.444;2022-09-17T07:26:23;101470.00;;;13.89;62.33
48614;BME280;34408;51.426;5.444;2022-09-17T07:28:50;101470.59;;;13.91;62.43
48614;BME280;34408;51.426;5.444;2022-09-17T07:31:18;101472.25;;;13.92;61.83
48614;BME280;34408;51.426;5.444;2022-09-17T07:33:46;101468.28;;;13.94;62.34
48614;BME280;34408;51.426;5.444;2022-09-17T07:36:14;101471.56;;;13.96;62.49
48614;BME280;34408;51.426;5.444;2022-09-17T07:38:43;101478.63;;;13.97;62.20
48614;BME280;34408;51.426;5.444;2022-09-17T07:41:13;101469.47;;;13.98;62.20
48614;BME280;34408;51.426;5.444;2022-09-17T07:43:42;101476.53;;;13.99;62.59
48614;BME280;34408;51.426;5.444;2022-09-17T07:46:16;101468.41;;;13.99;62.18
48614;BME280;34408;51.426;5.444;2022-09-17T07:48:44;101472.41;;;13.97;62.53
48614;BME280;34408;51.426;5.444;2022-09-17T07:51:16;101468.97;;;13.90;62.48
48614;BME280;34408;51.426;5.444;2022-09-17T07:53:44;101462.63;;;13.84;62.71
48614;BME280;34408;51.426;5.444;2022-09-17T07:56:14;101473.66;;;13.83;62.95
48614;BME280;34408;51.426;5.444;2022-09-17T07:58:42;101472.38;;;13.85;62.95
48614;BME280;34408;51.426;5.444;2022-09-17T08:01:11;101472.13;;;13.87;62.58
48614;BME280;34408;51.426;5.444;2022-09-17T08:03:41;101470.25;;;13.87;62.60
48614;BME280;34408;51.426;5.444;2022-09-17T08:06:10;101466.72;;;13.87;62.73
48614;BME280;34408;51.426;5.444;2022-09-17T08:08:39;101467.31;;;13.89;62.60
48614;BME280;34408;51.426;5.444;2022-09-17T08:11:09;101473.53;;;13.89;62.94
48614;BME280;34408;51.426;5.444;2022-09-17T08:13:39;101477.91;;;13.90;62.99
48614;BME280;34408;51.426;5.444;2022-09-17T08:16:09;101473.09;;;13.92;63.16
48614;BME280;34408;51.426;5.444;2022-09-17T08:18:39;101487.41;;;13.93;62.50
48614;BME280;34408;51.426;5.444;2022-09-17T08:21:09;101478.25;;;13.94;62.75
48614;BME280;34408;51.426;5.444;2022-09-17T08:23:38;101476.97;;;13.96;62.52
48614;BME280;34408;51.426;5.444;2022-09-17T08:26:08;101469.91;;;13.95;62.86
48614;BME280;34408;51.426;5.444;2022-09-17T08:28:43;101474.41;;;14.01;63.17
48614;BME280;34408;51.426;5.444;2022-09-17T08:31:14;101478.31;;;14.06;63.50
48614;BME280;34408;51.426;5.444;2022-09-17T08:33:42;101478.31;;;14.06;63.23
48614;BME280;34408;51.426;5.444;2022-09-17T08:36:11;101475.38;;;14.07;62.76
48614;BME280;34408;51.426;5.444;2022-09-17T08:38:39;101472.06;;;14.05;62.61
48614;BME280;34408;51.426;5.444;2022-09-17T08:41:18;101483.72;;;14.06;62.54
48614;BME280;34408;51.426;5.444;2022-09-17T08:43:53;101488.28;;;14.05;62.94
48614;BME280;34408;51.426;5.444;2022-09-17T08:46:25;101474.78;;;14.05;62.73
48614;BME280;34408;51.426;5.444;2022-09-17T08:49:01;101479.34;;;14.05;62.60
48614;BME280;34408;51.426;5.444;2022-09-17T08:51:37;101483.72;;;14.06;62.64
48614;BME280;34408;51.426;5.444;2022-09-17T08:54:08;101489.94;;;14.06;62.83
48614;BME280;34408;51.426;5.444;2022-09-17T08:56:40;101479.97;;;14.07;62.94
48614;BME280;34408;51.426;5.444;2022-09-17T08:59:14;101485.13;;;14.08;62.63
48614;BME280;34408;51.426;5.444;2022-09-17T09:01:49;101490.31;;;14.10;62.83
48614;BME280;34408;51.426;5.444;2022-09-17T09:07:06;101487.38;;;14.11;62.25
48614;BME280;34408;51.426;5.444;2022-09-17T09:09:35;101484.69;;;14.11;62.09
48614;BME280;34408;51.426;5.444;2022-09-17T09:12:05;101492.78;;;14.11;61.76
48614;BME280;34408;51.426;5.444;2022-09-17T09:14:36;101489.03;;;14.12;61.83
48614;BME280;34408;51.426;5.444;2022-09-17T09:17:06;101483.63;;;14.12;61.67
48614;BME280;34408;51.426;5.444;2022-09-17T09:19:38;101487.75;;;14.15;61.42
48614;BME280;34408;51.426;5.444;2022-09-17T09:22:12;101491.03;;;14.17;61.46
48614;BME280;34408;51.426;5.444;2022-09-17T09:24:43;101490.72;;;14.25;61.39
48614;BME280;34408;51.426;5.444;2022-09-17T09:27:14;101495.53;;;14.23;61.76
48614;BME280;34408;51.426;5.444;2022-09-17T09:29:47;101491.19;;;14.22;61.44
48614;BME280;34408;51.426;5.444;2022-09-17T09:32:23;101484.72;;;14.23;61.36
48614;BME280;34408;51.426;5.444;2022-09-17T09:34:59;101485.78;;;14.22;61.44
48614;BME280;34408;51.426;5.444;2022-09-17T09:37:29;101494.69;;;14.22;61.74
48614;BME280;34408;51.426;5.444;2022-09-17T09:39:59;101486.38;;;14.24;61.35
48614;BME280;34408;51.426;5.444;2022-09-17T09:42:29;101483.66;;;14.24;61.54
48614;BME280;34408;51.426;5.444;2022-09-17T09:45:00;101489.88;;;14.24;61.34
48614;BME280;34408;51.426;5.444;2022-09-17T09:47:37;101482.28;;;14.33;61.41
48614;BME280;34408;51.426;5.444;2022-09-17T09:50:14;101482.28;;;14.33;61.38
48614;BME280;34408;51.426;5.444;2022-09-17T09:52:47;101487.22;;;14.36;60.94
48614;BME280;34408;51.426;5.444;2022-09-17T09:55:26;101484.75;;;14.34;61.48
48614;BME280;34408;51.426;5.444;2022-09-17T09:58:02;101475.13;;;14.39;60.61
48614;BME280;34408;51.426;5.444;2022-09-17T10:00:35;101473.84;;;14.41;60.98
48614;BME280;34408;51.426;5.444;2022-09-17T10:03:05;101476.34;;;14.43;61.01
48614;BME280;34408;51.426;5.444;2022-09-17T10:05:36;101481.06;;;14.47;60.92
48614;BME280;34408;51.426;5.444;2022-09-17T10:08:09;101477.88;;;14.50;60.83
48614;BME280;34408;51.426;5.444;2022-09-17T10:10:37;101504.34;;;14.60;60.86
48614;BME280;34408;51.426;5.444;2022-09-17T10:13:19;101500.47;;;14.56;61.66
48614;BME280;34408;51.426;5.444;2022-09-17T10:15:48;101493.06;;;14.51;62.24
48614;BME280;34408;51.426;5.444;2022-09-17T10:18:17;101498.94;;;14.48;62.96
48614;BME280;34408;51.426;5.444;2022-09-17T10:20:48;101484.81;;;14.46;63.50
48614;BME280;34408;51.426;5.444;2022-09-17T10:23:16;101498.56;;;14.45;63.47
48614;BME280;34408;51.426;5.444;2022-09-17T10:25:44;101495.84;;;14.45;63.56
48614;BME280;34408;51.426;5.444;2022-09-17T10:28:21;101503.16;;;14.44;63.34
48614;BME280;34408;51.426;5.444;2022-09-17T10:30:56;101496.09;;;14.43;63.41
48614;BME280;34408;51.426;5.444;2022-09-17T10:33:24;101487.75;;;14.45;63.46
48614;BME280;34408;51.426;5.444;2022-09-17T10:35:57;101493.97;;;14.45;63.27
48614;BME280;34408;51.426;5.444;2022-09-17T10:38:26;101480.47;;;14.45;63.72
48614;BME280;34408;51.426;5.444;2022-09-17T10:41:05;101483.75;;;14.47;63.62
48614;BME280;34408;51.426;5.444;2022-09-17T10:43:34;101480.81;;;14.49;63.79
48614;BME280;34408;51.426;5.444;2022-09-17T10:46:02;101476.81;;;14.51;64.29
48614;BME280;34408;51.426;5.444;2022-09-17T10:48:30;101481.19;;;14.52;64.41
48614;BME280;34408;51.426;5.444;2022-09-17T10:50:59;101490.13;;;14.53;64.03
48614;BME280;34408;51.426;5.444;2022-09-17T10:53:28;101497.19;;;14.54;63.64
48614;BME280;34408;51.426;5.444;2022-09-17T10:56:06;101501.53;;;14.55;63.72
48614;BME280;34408;51.426;5.444;2022-09-17T10:58:43;101502.34;;;14.55;63.68
48614;BME280;34408;51.426;5.444;2022-09-17T11:01:19;101488.22;;;14.53;63.54
48614;BME280;34408;51.426;5.444;2022-09-17T11:03:54;101490.13;;;14.53;63.25
48614;BME280;34408;51.426;5.444;2022-09-17T11:09:17;101486.34;;;14.54;63.04
48614;BME280;34408;51.426;5.444;2022-09-17T11:11:50;101483.41;;;14.55;62.81
48614;BME280;34408;51.426;5.444;2022-09-17T11:14:28;101476.34;;;14.54;62.87
48614;BME280;34408;51.426;5.444;2022-09-17T11:17:03;101489.66;;;14.56;62.54
48614;BME280;34408;51.426;5.444;2022-09-17T11:19:34;101478.00;;;14.55;62.55
48614;BME280;34408;51.426;5.444;2022-09-17T11:22:05;101482.34;;;14.56;62.76
48614;BME280;34408;51.426;5.444;2022-09-17T11:24:47;101487.78;;;14.56;62.61
48614;BME280;34408;51.426;5.444;2022-09-17T11:27:26;101481.31;;;14.57;62.66
48614;BME280;34408;51.426;5.444;2022-09-17T11:30:07;101478.59;;;14.57;62.70
48614;BME280;34408;51.426;5.444;2022-09-17T11:32:46;101480.25;;;14.58;62.87
48614;BME280;34408;51.426;5.444;2022-09-17T11:35:19;101477.31;;;14.60;62.88
48614;BME280;34408;51.426;5.444;2022-09-17T11:37:49;101480.59;;;14.62;62.67
48614;BME280;34408;51.426;5.444;2022-09-17T11:40:35;101477.06;;;14.61;62.73
48614;BME280;34408;51.426;5.444;2022-09-17T11:43:06;101479.78;;;14.61;62.85
48614;BME280;34408;51.426;5.444;2022-09-17T11:45:38;101486.84;;;14.62;62.73
48614;BME280;34408;51.426;5.444;2022-09-17T11:48:09;101476.03;;;14.62;62.58
48614;BME280;34408;51.426;5.444;2022-09-17T11:50:39;101474.72;;;14.65;62.85
48614;BME280;34408;51.426;5.444;2022-09-17T11:53:08;101472.38;;;14.69;62.94
48614;BME280;34408;51.426;5.444;2022-09-17T11:55:43;101482.16;;;14.70;62.82
48614;BME280;34408;51.426;5.444;2022-09-17T11:58:13;101487.31;;;14.71;62.74
48614;BME280;34408;51.426;5.444;2022-09-17T12:00:43;101481.69;;;14.73;62.86
48614;BME280;34408;51.426;5.444;2022-09-17T12:03:15;101489.09;;;14.77;63.13
48614;BME280;34408;51.426;5.444;2022-09-17T12:05:45;101490.75;;;14.78;63.02
48614;BME280;34408;51.426;5.444;2022-09-17T12:08:15;101490.03;;;14.83;63.27
48614;BME280;34408;51.426;5.444;2022-09-17T12:10:45;101480.03;;;14.83;62.87
48614;BME280;34408;51.426;5.444;2022-09-17T12:13:17;101475.22;;;14.85;62.69
48614;BME280;34408;51.426;5.444;2022-09-17T12:15:48;101472.50;;;14.85;62.70
48614;BME280;34408;51.426;5.444;2022-09-17T12:18:26;101469.81;;;14.85;62.62
48614;BME280;34408;51.426;5.444;2022-09-17T12:20:58;101470.63;;;14.86;62.61
48614;BME280;34408;51.426;5.444;2022-09-17T12:23:30;101466.88;;;14.87;62.53
48614;BME280;34408;51.426;5.444;2022-09-17T12:26:03;101469.56;;;14.87;62.56
48614;BME280;34408;51.426;5.444;2022-09-17T12:28:35;101468.50;;;14.88;62.20
48614;BME280;34408;51.426;5.444;2022-09-17T12:31:07;101462.88;;;14.89;62.26
48614;BME280;34408;51.426;5.444;2022-09-17T12:33:38;101447.69;;;14.88;62.23
48614;BME280;34408;51.426;5.444;2022-09-17T12:38:59;101446.16;;;14.92;61.90
48614;BME280;34408;51.426;5.444;2022-09-17T12:41:34;101447.56;;;14.95;61.79
48614;BME280;34408;51.426;5.444;2022-09-17T12:44:09;101446.28;;;14.97;61.44
48614;BME280;34408;51.426;5.444;2022-09-17T12:46:43;101450.16;;;15.02;61.54
48614;BME280;34408;51.426;5.444;2022-09-17T12:49:21;101444.25;;;15.05;60.93
48614;BME280;34408;51.426;5.444;2022-09-17T12:51:55;101435.09;;;15.06;60.93
48614;BME280;34408;51.426;5.444;2022-09-17T12:54:31;101442.50;;;15.10;60.94
48614;BME280;34408;51.426;5.444;2022-09-17T12:57:13;101416.81;;;15.13;60.62
48614;BME280;34408;51.426;5.444;2022-09-17T12:59:44;101425.06;;;15.18;60.71
48614;BME280;34408;51.426;5.444;2022-09-17T13:02:16;101414.81;;;15.20;60.92
48614;BME280;34408;51.426;5.444;2022-09-17T13:04:51;101413.28;;;15.24;61.06
48614;BME280;34408;51.426;5.444;2022-09-17T13:07:39;101418.22;;;15.27;60.99
48614;BME280;34408;51.426;5.444;2022-09-17T13:10:14;101406.91;;;15.30;61.13
48614;BME280;34408;51.426;5.444;2022-09-17T13:12:49;101407.25;;;15.34;61.13
48614;BME280;34408;51.426;5.444;2022-09-17T13:15:33;101411.38;;;15.36;61.27
48614;BME280;34408;51.426;5.444;2022-09-17T13:18:05;101419.84;;;15.40;60.92
48614;BME280;34408;51.426;5.444;2022-09-17T13:21:01;101412.44;;;15.35;60.90
48614;BME280;34408;51.426;5.444;2022-09-17T13:23:31;101395.59;;;15.33;61.08